aerodrome LA FERTE GAUCHER, LFFG, pilots, aviation, flying | pilotspace.eu

LA FERTE GAUCHER

aerodrome LA FERTE GAUCHER

ICAO/ID: LFFG
France
web: Réservé au parachutisme et aux avions de servitude
show on the map

LFPM 012330Z AUTO 25013KT 9999 NSC 08/03 Q1025

TAF LFPG 012300Z 0200/0306 24013KT 9999 BKN025 BECMG 0200/0202 25015G25KT PROB40 TEMPO 0207/0213 4000 -RA BKN012 PROB30 TEMPO 0211/0213 2500 RA BKN007 BECMG 0211/0213 34010KT BECMG 0213/0215 02005KT PROB40 TEMPO 0303/0306 3000 -DZRA BKN006 TX10/0212Z TN06/0300Z

general information

altitude: 538 ft
latitude: 48 45 21 N
longitude: 003 16 36 E

traffic information

RWY: 05/23: 3,609 ft (1,100 m) — surface unknown
report copyright

Online pilot logbook: free for each registered member! http://www.pilotlogbook.eu


last flights

RECENTLY ADDED

Job pictures

Job pictures

31/03/2015 (31x)

lukin

zimni VFR s OK-JOR

zimni VFR s OK-JOR

21/02/2015 (11x)

FilM

lítání je žrádlo, řekl kdysi můj kolega...

lítání je žrádlo, řekl k ...

01/02/2015 (50x)

Carlos K2

Etna

Etna

10/01/2015 (39x)

lukin

Vianoce 2014

Vianoce 2014

09/01/2015 (6x)

Jenki

Sitno December 2014

Sitno December 2014

09/01/2015 (13x)

Jenki

ULRBK fotos

ULRBK fotos

25/12/2014 (8x)

northwolf

The Cheyenne

The Cheyenne

21/11/2014 (35x)

lukin